createdAt,value
2022-09-20T00:01:48.216Z,26.67
2022-09-20T00:04:37.615Z,26.65
2022-09-20T00:07:19.247Z,26.45
2022-09-20T00:10:09.302Z,28.08
2022-09-20T00:12:58.306Z,26.38
2022-09-20T00:15:53.600Z,27.67
2022-09-20T00:18:35.315Z,26.00
2022-09-20T00:21:26.618Z,26.65
2022-09-20T00:24:09.316Z,27.42
2022-09-20T00:26:58.309Z,26.30
2022-09-20T00:29:40.751Z,26.77
2022-09-20T00:32:29.305Z,26.70
2022-09-20T00:35:12.568Z,26.13
2022-09-20T00:38:01.315Z,26.17
2022-09-20T00:40:50.305Z,25.23
2022-09-20T00:43:42.787Z,26.45
2022-09-20T00:46:49.307Z,25.75
2022-09-20T00:49:40.204Z,25.92
2022-09-20T00:52:31.309Z,24.65
2022-09-20T00:55:21.303Z,25.40
2022-09-20T00:58:10.318Z,24.73
2022-09-20T01:00:56.423Z,24.85
2022-09-20T01:03:47.323Z,25.17
2022-09-20T01:06:30.612Z,25.67
2022-09-20T01:09:21.293Z,26.13
2022-09-20T01:12:23.311Z,24.77
2022-09-20T01:15:07.595Z,23.95
2022-09-20T01:18:00.379Z,24.48
2022-09-20T01:20:47.676Z,26.48
2022-09-20T01:24:12.354Z,25.80
2022-09-20T01:27:08.728Z,24.50
2022-09-20T01:30:09.321Z,25.45
2022-09-20T01:33:13.312Z,27.50
2022-09-20T01:36:07.315Z,26.05
2022-09-20T01:39:04.589Z,25.73
2022-09-20T01:42:22.356Z,26.92
2022-09-20T01:45:23.311Z,24.80
2022-09-20T01:48:19.569Z,24.98
2022-09-20T01:51:50.314Z,25.27
2022-09-20T01:54:41.588Z,25.80
2022-09-20T01:57:54.301Z,24.45
2022-09-20T02:01:07.699Z,26.15
2022-09-20T02:04:02.338Z,23.73
2022-09-20T02:07:00.296Z,24.05
2022-09-20T02:10:18.300Z,23.75
2022-09-20T02:13:13.343Z,23.20
2022-09-20T02:16:01.566Z,23.25
2022-09-20T02:18:53.379Z,23.15
2022-09-20T02:22:02.611Z,24.92
2022-09-20T02:25:21.359Z,23.33
2022-09-20T02:28:28.687Z,23.10
2022-09-20T02:31:17.433Z,20.65
2022-09-20T02:34:12.356Z,21.17
2022-09-20T02:37:22.652Z,21.42
2022-09-20T02:40:34.328Z,18.92
2022-09-20T02:43:46.669Z,20.23
2022-09-20T02:47:08.316Z,19.30
2022-09-20T02:50:23.609Z,19.48
2022-09-20T02:53:49.329Z,21.38
2022-09-20T02:57:16.296Z,22.13
2022-09-20T03:00:31.373Z,20.35
2022-09-20T03:03:26.468Z,20.42
2022-09-20T03:06:49.438Z,20.17
2022-09-20T03:10:04.304Z,19.17
2022-09-20T03:12:49.782Z,21.45
2022-09-20T03:15:51.489Z,20.23
2022-09-20T03:18:43.645Z,21.25
2022-09-20T03:21:53.317Z,19.95
2022-09-20T03:24:46.161Z,20.95
2022-09-20T03:27:57.305Z,19.25
2022-09-20T03:31:11.317Z,19.02
2022-09-20T03:37:29.351Z,18.52
2022-09-20T03:40:27.394Z,18.23
2022-09-20T03:43:48.018Z,19.15
2022-09-20T03:46:50.301Z,18.17
2022-09-20T03:49:43.052Z,17.10
2022-09-20T03:52:51.303Z,17.60
2022-09-20T03:55:40.299Z,17.63
2022-09-20T03:58:58.731Z,18.23
2022-09-20T04:02:05.394Z,17.00
2022-09-20T04:05:06.621Z,18.17
2022-09-20T04:08:39.462Z,17.40
2022-09-20T04:12:17.322Z,15.68
2022-09-20T04:15:41.299Z,16.95
2022-09-20T04:18:48.331Z,19.23
2022-09-20T04:22:15.195Z,18.40
2022-09-20T04:25:07.366Z,19.02
2022-09-20T04:27:58.705Z,17.25
2022-09-20T04:30:52.323Z,17.80
2022-09-20T04:33:49.372Z,19.38
2022-09-20T04:37:03.352Z,18.50
2022-09-20T04:43:02.232Z,18.42
2022-09-20T04:46:09.747Z,18.70
2022-09-20T04:49:25.201Z,18.67
2022-09-20T04:52:35.365Z,18.73
2022-09-20T04:55:41.484Z,18.85
2022-09-20T04:58:55.343Z,18.58
2022-09-20T05:02:15.424Z,18.98
2022-09-20T05:05:21.610Z,19.95
2022-09-20T05:08:22.328Z,20.20
2022-09-20T05:11:31.692Z,21.27
2022-09-20T05:17:43.599Z,19.50
2022-09-20T05:21:02.352Z,20.90
2022-09-20T05:24:19.278Z,18.88
2022-09-20T05:27:30.314Z,20.60
2022-09-20T05:30:39.189Z,18.75
2022-09-20T05:33:40.348Z,18.50
2022-09-20T05:37:04.382Z,19.73
2022-09-20T05:40:29.347Z,17.17
2022-09-20T05:43:22.041Z,17.85
2022-09-20T05:46:25.910Z,18.08
2022-09-20T05:49:46.681Z,17.35
2022-09-20T05:52:35.419Z,17.25
2022-09-20T05:55:35.646Z,17.27
2022-09-20T05:59:02.303Z,16.85
2022-09-20T06:02:26.371Z,17.10
2022-09-20T06:08:22.579Z,18.80
2022-09-20T06:11:20.636Z,18.70
2022-09-20T06:14:31.756Z,19.90
2022-09-20T06:17:32.283Z,19.38
2022-09-20T06:20:25.747Z,19.08
2022-09-20T06:23:22.312Z,19.75
2022-09-20T06:26:11.985Z,18.00
2022-09-20T06:29:06.272Z,18.38
2022-09-20T06:31:48.543Z,19.40
2022-09-20T06:34:37.252Z,19.10
2022-09-20T06:37:51.923Z,20.23
2022-09-20T06:40:59.288Z,19.88
2022-09-20T06:43:44.100Z,19.08
2022-09-20T06:46:33.245Z,18.90
2022-09-20T06:49:15.503Z,19.58
2022-09-20T06:52:05.291Z,19.20
2022-09-20T06:54:55.730Z,18.55
2022-09-20T06:57:48.284Z,18.15
2022-09-20T07:00:43.417Z,18.83
2022-09-20T07:03:25.678Z,18.80
2022-09-20T07:06:14.391Z,18.98
2022-09-20T07:09:05.488Z,17.63
2022-09-20T07:11:48.677Z,18.02
2022-09-20T07:14:36.666Z,19.30
2022-09-20T07:17:19.373Z,19.85
2022-09-20T07:20:08.668Z,19.05
2022-09-20T07:23:04.724Z,20.17
2022-09-20T07:26:00.210Z,20.52
2022-09-20T07:28:55.273Z,19.90
2022-09-20T07:31:50.156Z,21.45
2022-09-20T07:34:45.407Z,20.85
2022-09-20T07:37:42.207Z,21.20
2022-09-20T07:40:37.461Z,21.20
2022-09-20T07:43:32.209Z,21.20
2022-09-20T07:46:30.346Z,20.55
2022-09-20T07:49:25.210Z,21.80
2022-09-20T07:52:22.346Z,24.20
2022-09-20T07:55:11.684Z,19.55
2022-09-20T07:57:54.351Z,20.30
2022-09-20T08:00:43.285Z,21.17
2022-09-20T08:03:32.234Z,20.30
2022-09-20T08:06:24.271Z,20.83
2022-09-20T08:09:13.350Z,21.52
2022-09-20T08:15:08.526Z,21.88
2022-09-20T08:18:00.361Z,23.40
2022-09-20T08:20:53.293Z,23.17
2022-09-20T08:23:50.245Z,22.75
2022-09-20T08:26:43.235Z,23.08
2022-09-20T08:29:38.236Z,21.05
2022-09-20T08:32:20.515Z,21.95
2022-09-20T08:35:09.226Z,22.05
2022-09-20T08:39:57.251Z,20.42
2022-09-20T08:41:26.246Z,20.48
2022-09-20T08:44:36.328Z,21.73
2022-09-20T08:47:36.261Z,21.13
2022-09-20T08:50:32.292Z,19.65
2022-09-20T08:53:29.162Z,20.35
2022-09-20T08:56:24.210Z,19.63
2022-09-20T08:59:09.134Z,19.00
2022-09-20T09:01:58.225Z,19.58
2022-09-20T09:04:40.784Z,18.27
2022-09-20T09:07:33.301Z,19.85
2022-09-20T09:10:15.527Z,18.80
2022-09-20T09:13:06.232Z,19.73
2022-09-20T09:15:54.650Z,20.38
2022-09-20T09:18:54.222Z,20.38
2022-09-20T09:21:36.583Z,19.88
2022-09-20T09:24:35.309Z,20.42
2022-09-20T09:27:21.363Z,21.30
2022-09-20T09:30:11.207Z,19.83
2022-09-20T09:33:01.304Z,19.83
2022-09-20T09:35:51.207Z,20.20
2022-09-20T09:38:49.123Z,22.20
2022-09-20T09:41:41.227Z,21.75
2022-09-20T09:44:28.790Z,21.75
2022-09-20T09:47:17.206Z,20.88
2022-09-20T09:50:09.835Z,21.17
2022-09-20T09:53:10.313Z,20.50
2022-09-20T09:56:19.141Z,20.48
2022-09-20T09:59:48.202Z,19.80
2022-09-20T10:03:06.214Z,20.30
2022-09-20T10:06:11.360Z,20.00
2022-09-20T10:09:18.186Z,20.25
2022-09-20T10:12:27.368Z,19.42
2022-09-20T10:15:53.221Z,19.60
2022-09-20T10:18:53.289Z,18.50
2022-09-20T10:22:06.209Z,19.35
2022-09-20T10:25:36.311Z,19.65
2022-09-20T10:28:29.205Z,19.67
2022-09-20T10:31:31.430Z,19.05
2022-09-20T10:34:54.713Z,19.40
2022-09-20T10:38:03.223Z,19.92
2022-09-20T10:41:26.862Z,19.17
2022-09-20T10:44:28.658Z,19.25
2022-09-20T10:47:13.593Z,18.30
2022-09-20T10:50:15.208Z,18.55
2022-09-20T10:53:27.005Z,18.95
2022-09-20T10:56:31.215Z,17.48
2022-09-20T11:02:30.351Z,17.58
2022-09-20T11:05:26.371Z,18.02
2022-09-20T11:08:23.810Z,18.00
2022-09-20T11:11:27.319Z,17.63
2022-09-20T11:14:23.606Z,17.42
2022-09-20T11:17:36.198Z,17.25
2022-09-20T11:20:45.212Z,17.73
2022-09-20T11:23:46.377Z,18.98
2022-09-20T11:26:46.191Z,20.90
2022-09-20T11:29:56.763Z,21.65
2022-09-20T11:33:23.299Z,18.95
2022-09-20T11:36:12.149Z,18.45
2022-09-20T11:39:26.293Z,16.45
2022-09-20T11:42:15.466Z,15.25
2022-09-20T11:45:05.281Z,17.42
2022-09-20T11:47:55.864Z,15.02
2022-09-20T11:51:02.299Z,16.33
2022-09-20T11:54:12.223Z,16.10
2022-09-20T11:57:10.142Z,16.38
2022-09-20T12:00:05.223Z,14.90
2022-09-20T12:02:54.677Z,15.18
2022-09-20T12:05:47.182Z,14.40
2022-09-20T12:08:43.658Z,13.93
2022-09-20T12:11:49.642Z,14.57
2022-09-20T12:14:55.225Z,13.95
2022-09-20T12:17:57.342Z,14.35
2022-09-20T12:20:43.570Z,15.30
2022-09-20T12:23:53.355Z,14.60
2022-09-20T12:26:42.346Z,17.75
2022-09-20T12:29:35.098Z,15.95
2022-09-20T12:32:46.242Z,15.63
2022-09-20T12:35:46.260Z,15.90
2022-09-20T12:38:28.638Z,16.70
2022-09-20T12:41:28.366Z,17.27
2022-09-20T12:44:30.689Z,18.58
2022-09-20T12:47:19.209Z,17.98
2022-09-20T12:50:31.405Z,18.63
2022-09-20T12:53:24.648Z,19.52
2022-09-20T12:56:23.213Z,19.83
2022-09-20T12:59:14.601Z,20.08
2022-09-20T13:01:57.302Z,19.95
2022-09-20T13:05:00.667Z,18.52
2022-09-20T13:08:07.348Z,19.88
2022-09-20T13:11:13.681Z,18.45
2022-09-20T13:14:29.385Z,17.50
2022-09-20T13:17:23.273Z,19.48
2022-09-20T13:20:07.622Z,18.80
2022-09-20T13:23:00.151Z,18.00
2022-09-20T13:25:46.787Z,19.13
2022-09-20T13:28:42.367Z,18.38
2022-09-20T13:31:47.327Z,19.42
2022-09-20T13:34:36.230Z,19.85
2022-09-20T13:37:26.658Z,18.45
2022-09-20T13:40:24.287Z,19.27
2022-09-20T13:43:24.800Z,19.88
2022-09-20T13:46:19.394Z,19.70
2022-09-20T13:49:26.766Z,19.88
2022-09-20T13:52:36.309Z,19.30
2022-09-20T13:55:47.230Z,19.70
2022-09-20T13:58:50.159Z,20.17
2022-09-20T14:01:43.359Z,19.85
2022-09-20T14:04:33.882Z,20.65
2022-09-20T14:07:23.426Z,20.95
2022-09-20T14:10:07.031Z,21.10
2022-09-20T14:12:57.301Z,21.92
2022-09-20T14:15:47.649Z,21.13
2022-09-20T14:18:36.333Z,22.13
2022-09-20T14:21:20.935Z,22.02
2022-09-20T14:24:41.315Z,23.25
2022-09-20T14:27:41.429Z,22.50
2022-09-20T14:30:37.341Z,23.52
2022-09-20T14:33:33.212Z,22.95
2022-09-20T14:36:41.290Z,23.25
2022-09-20T14:39:33.295Z,23.00
2022-09-20T14:42:32.268Z,22.75
2022-09-20T14:45:23.400Z,23.63
2022-09-20T14:48:35.736Z,22.98
2022-09-20T14:51:33.273Z,23.65
2022-09-20T14:54:21.841Z,23.70
2022-09-20T14:57:06.391Z,23.55
2022-09-20T15:00:10.213Z,24.42
2022-09-20T15:02:59.233Z,23.33
2022-09-20T15:05:48.353Z,23.73
2022-09-20T15:08:30.542Z,24.17
2022-09-20T15:11:19.359Z,25.83
2022-09-20T15:14:01.599Z,25.10
2022-09-20T15:16:50.378Z,25.88
2022-09-20T15:19:39.829Z,25.65
2022-09-20T15:22:22.361Z,24.80
2022-09-20T15:25:12.202Z,25.67
2022-09-20T15:27:57.384Z,26.60
2022-09-20T15:30:39.641Z,27.17
2022-09-20T15:33:29.296Z,25.77
2022-09-20T15:36:13.739Z,24.75
2022-09-20T15:39:02.282Z,24.92
2022-09-20T15:41:47.168Z,24.58
2022-09-20T15:44:38.414Z,24.55
2022-09-20T15:47:29.593Z,24.25
2022-09-20T15:50:16.377Z,26.35
2022-09-20T15:53:07.370Z,24.60
2022-09-20T15:55:49.655Z,24.20
2022-09-20T15:58:43.260Z,26.40
2022-09-20T16:01:39.377Z,26.55
2022-09-20T16:04:28.725Z,24.55
2022-09-20T16:07:11.247Z,25.63
2022-09-20T16:09:57.728Z,25.27
2022-09-20T16:12:47.316Z,24.05
2022-09-20T16:15:36.814Z,25.27
2022-09-20T16:18:37.335Z,25.90
2022-09-20T16:21:27.813Z,26.50
2022-09-20T16:24:10.326Z,27.23
2022-09-20T16:26:52.605Z,28.70
2022-09-20T16:29:41.334Z,27.77
2022-09-20T16:32:23.718Z,27.90
2022-09-20T16:35:15.336Z,27.80
2022-09-20T16:37:58.856Z,28.17
2022-09-20T16:40:47.316Z,28.33
2022-09-20T16:43:31.403Z,27.88
2022-09-20T16:46:21.321Z,28.73
2022-09-20T16:49:04.440Z,30.23
2022-09-20T16:51:55.305Z,29.95
2022-09-20T16:54:51.320Z,29.98
2022-09-20T16:57:40.677Z,30.80
2022-09-20T17:00:24.387Z,28.90
2022-09-20T17:03:20.131Z,32.83
2022-09-20T17:06:10.398Z,32.13
2022-09-20T17:08:56.806Z,31.67
2022-09-20T17:11:53.338Z,32.75
2022-09-20T17:14:37.334Z,33.58
2022-09-20T17:17:30.838Z,36.67
2022-09-20T17:20:14.125Z,37.47
2022-09-20T17:23:03.276Z,36.47
2022-09-20T17:25:47.430Z,36.55
2022-09-20T17:28:36.356Z,36.85
2022-09-20T17:31:22.839Z,36.20
2022-09-20T17:34:15.301Z,35.28
2022-09-20T17:36:57.894Z,36.33
2022-09-20T17:39:48.294Z,36.65
2022-09-20T17:42:32.365Z,35.65
2022-09-20T17:45:21.327Z,35.72
2022-09-20T17:52:17.315Z,38.13
2022-09-20T17:55:13.388Z,36.75
2022-09-20T17:58:02.223Z,36.72
2022-09-20T18:00:56.296Z,35.60
2022-09-20T18:06:36.337Z,32.25
2022-09-20T18:09:33.250Z,32.67
2022-09-20T18:12:22.397Z,30.90
2022-09-20T18:15:11.683Z,30.90
2022-09-20T18:17:54.556Z,28.42
2022-09-20T18:20:43.194Z,28.23
2022-09-20T18:23:32.275Z,30.13
2022-09-20T18:26:23.954Z,27.67
2022-09-20T18:29:28.182Z,28.83
2022-09-20T18:32:10.607Z,27.55
2022-09-20T18:34:59.284Z,24.50
2022-09-20T18:37:48.277Z,25.27
2022-09-20T18:40:31.318Z,23.60
2022-09-20T18:43:20.181Z,21.85
2022-09-20T18:46:02.569Z,21.02
2022-09-20T18:48:52.309Z,20.08
2022-09-20T18:51:39.374Z,20.48
2022-09-20T18:54:29.266Z,19.08
2022-09-20T18:57:25.184Z,19.70
2022-09-20T19:00:15.229Z,18.08
2022-09-20T19:03:26.176Z,18.42
2022-09-20T19:06:20.289Z,18.02
2022-09-20T19:09:10.569Z,18.27
2022-09-20T19:12:12.264Z,18.25
2022-09-20T19:15:00.575Z,17.67
2022-09-20T19:17:55.186Z,17.52
2022-09-20T19:20:37.589Z,18.08
2022-09-20T19:23:53.195Z,18.90
2022-09-20T19:26:41.731Z,18.60
2022-09-20T19:29:35.166Z,19.08
2022-09-20T19:32:34.176Z,19.30
2022-09-20T19:35:25.537Z,19.10
2022-09-20T19:38:26.187Z,18.33
2022-09-20T19:41:40.476Z,19.42
2022-09-20T19:45:17.282Z,19.55
2022-09-20T19:48:08.211Z,18.73
2022-09-20T19:51:00.183Z,20.17
2022-09-20T19:53:56.179Z,18.80
2022-09-20T19:57:08.132Z,18.00
2022-09-20T19:59:58.173Z,18.58
2022-09-20T20:02:40.602Z,18.95
2022-09-20T20:05:35.174Z,20.77
2022-09-20T20:08:41.653Z,19.73
2022-09-20T20:11:57.180Z,20.40
2022-09-20T20:14:46.154Z,21.15
2022-09-20T20:17:51.233Z,20.65
2022-09-20T20:20:47.260Z,19.52
2022-09-20T20:23:58.959Z,19.75
2022-09-20T20:26:48.593Z,21.23
2022-09-20T20:29:37.287Z,20.92
2022-09-20T20:32:19.564Z,20.23
2022-09-20T20:35:08.322Z,20.48
2022-09-20T20:37:50.599Z,21.35
2022-09-20T20:40:40.302Z,20.95
2022-09-20T20:43:22.624Z,21.52
2022-09-20T20:46:13.227Z,19.95
2022-09-20T20:49:03.189Z,20.55
2022-09-20T20:51:52.149Z,21.08
2022-09-20T20:54:41.273Z,21.67
2022-09-20T20:57:36.129Z,21.42
2022-09-20T21:00:25.185Z,21.25
2022-09-20T21:03:12.123Z,21.85
2022-09-20T21:06:04.283Z,21.05
2022-09-20T21:08:56.275Z,21.80
2022-09-20T21:11:49.474Z,20.08
2022-09-20T21:14:31.216Z,21.67
2022-09-20T21:17:13.474Z,20.38
2022-09-20T21:20:03.157Z,20.50
2022-09-20T21:22:51.606Z,20.77
2022-09-20T21:25:34.161Z,19.70
2022-09-20T21:28:23.366Z,22.17
2022-09-20T21:31:06.271Z,20.42
2022-09-20T21:33:56.103Z,20.13
2022-09-20T21:36:40.281Z,19.55
2022-09-20T21:39:29.272Z,19.33
2022-09-20T21:42:11.556Z,18.63
2022-09-20T21:45:00.179Z,18.85
2022-09-20T21:47:43.026Z,18.83
2022-09-20T21:50:34.266Z,18.85
2022-09-20T21:53:23.179Z,18.33
2022-09-20T21:56:18.574Z,18.83
2022-09-20T21:59:03.160Z,18.70
2022-09-20T22:01:52.331Z,19.77
2022-09-20T22:04:41.163Z,18.70
2022-09-20T22:07:30.165Z,19.10
2022-09-20T22:10:12.782Z,18.75
2022-09-20T22:13:01.266Z,19.08
2022-09-20T22:15:43.584Z,19.40
2022-09-20T22:18:32.297Z,18.88
2022-09-20T22:21:17.639Z,19.05
2022-09-20T22:24:09.353Z,17.75
2022-09-20T22:26:56.603Z,18.67
2022-09-20T22:29:45.266Z,19.23
2022-09-20T22:32:34.284Z,19.65
2022-09-20T22:35:16.718Z,18.85
2022-09-20T22:38:05.156Z,19.23
2022-09-20T22:41:07.196Z,19.48
2022-09-20T22:43:49.826Z,18.15
2022-09-20T22:46:39.191Z,17.95
2022-09-20T22:49:21.606Z,18.27
2022-09-20T22:52:10.164Z,16.75
2022-09-20T22:54:59.164Z,17.05
2022-09-20T22:57:47.543Z,17.65
2022-09-20T23:00:29.201Z,17.77
2022-09-20T23:03:11.609Z,18.20
2022-09-20T23:06:00.312Z,17.52
2022-09-20T23:08:42.901Z,17.58
2022-09-20T23:11:33.279Z,16.98
2022-09-20T23:14:24.570Z,18.20
2022-09-20T23:17:06.249Z,17.20
2022-09-20T23:19:54.568Z,16.05
2022-09-20T23:22:36.244Z,16.55
2022-09-20T23:25:18.552Z,15.93
2022-09-20T23:28:09.271Z,15.50
